Haileybury, Canada
Current Conditions -  °F | °C
As of 12:00 AM on Tuesday 23 Dec 2014 (Local Time) from CYXR Reporting Station
Overcast Overcast  
Wind Chill: 10°   Ceiling: 600
Heat Index: 21°   Visibility: 9mi
Dew Point: 21°   Wind: 10mph
Humidity: 100%   Direction: 140°SE
Pressure: 30.11"   Gusts: 17mph
Location:  47.45°N, 79.64°W
Report Text: CYXR 230500Z AUTO 14009G15KT 9SM OVC006 M06/M06 A3011 RMK SLP213
Loading
Personal Weather Stations






























Interactive Weather Map New forecast layout! Learn more

10-Day Weather Forecast

Advertisements
Track Severe Weather on mobile